createdAt,value
2022-12-18T00:01:34.647Z,69.20
2022-12-18T00:04:05.865Z,69.20
2022-12-18T00:06:35.888Z,69.10
2022-12-18T00:09:05.051Z,69.00
2022-12-18T00:11:33.568Z,68.90
2022-12-18T00:14:01.349Z,68.90
2022-12-18T00:16:32.345Z,68.80
2022-12-18T00:19:00.637Z,68.80
2022-12-18T00:21:29.627Z,68.60
2022-12-18T00:23:58.205Z,68.50
2022-12-18T00:26:37.070Z,68.50
2022-12-18T00:29:15.281Z,68.60
2022-12-18T00:31:44.089Z,68.70
2022-12-18T00:34:14.057Z,68.70
2022-12-18T00:36:42.768Z,69.00
2022-12-18T00:39:12.077Z,68.90
2022-12-18T00:41:58.060Z,68.90
2022-12-18T00:44:25.148Z,69.10
2022-12-18T00:46:52.455Z,68.90
2022-12-18T00:49:21.542Z,68.80
2022-12-18T00:51:49.662Z,68.90
2022-12-18T00:54:18.040Z,68.90
2022-12-18T00:56:49.454Z,68.90
2022-12-18T00:59:18.786Z,68.90
2022-12-18T01:01:46.506Z,68.90
2022-12-18T01:04:13.749Z,68.90
2022-12-18T01:06:41.668Z,68.90
2022-12-18T01:09:08.790Z,68.90
2022-12-18T01:11:36.231Z,68.70
2022-12-18T01:14:03.272Z,68.70
2022-12-18T01:16:30.627Z,68.80
2022-12-18T01:18:58.134Z,68.60
2022-12-18T01:21:25.897Z,68.60
2022-12-18T01:23:57.536Z,68.60
2022-12-18T01:26:26.759Z,68.50
2022-12-18T01:28:56.451Z,68.50
2022-12-18T01:31:31.826Z,68.40
2022-12-18T01:34:02.700Z,68.40
2022-12-18T01:36:34.033Z,68.40
2022-12-18T01:39:08.178Z,68.60
2022-12-18T01:41:54.651Z,68.60
2022-12-18T01:44:58.895Z,68.50
2022-12-18T01:47:50.896Z,68.40
2022-12-18T01:50:28.465Z,68.50
2022-12-18T01:52:59.279Z,68.50
2022-12-18T01:55:30.851Z,68.60
2022-12-18T01:58:01.133Z,68.40
2022-12-18T02:00:29.327Z,68.50
2022-12-18T02:02:57.232Z,68.50
2022-12-18T02:05:56.689Z,68.60
2022-12-18T02:08:55.666Z,68.50
2022-12-18T02:11:45.692Z,68.40
2022-12-18T02:14:32.413Z,68.90
2022-12-18T02:17:23.159Z,68.30
2022-12-18T02:20:11.526Z,68.30
2022-12-18T02:23:07.118Z,68.40
2022-12-18T02:25:58.494Z,68.20
2022-12-18T02:28:31.501Z,68.20
2022-12-18T02:31:03.773Z,68.30
2022-12-18T02:33:34.557Z,68.30
2022-12-18T02:36:03.687Z,68.30
2022-12-18T02:38:32.385Z,68.20
2022-12-18T02:41:01.039Z,68.30
2022-12-18T02:43:28.630Z,68.30
2022-12-18T02:46:00.051Z,68.30
2022-12-18T02:48:34.054Z,68.30
2022-12-18T02:51:39.696Z,68.30
2022-12-18T02:54:34.247Z,68.20
2022-12-18T02:57:21.639Z,68.20
2022-12-18T03:00:04.275Z,68.30
2022-12-18T03:02:52.543Z,68.30
2022-12-18T03:05:29.033Z,68.20
2022-12-18T03:08:14.563Z,68.60
2022-12-18T03:11:09.041Z,68.10
2022-12-18T03:13:53.931Z,68.10
2022-12-18T03:16:29.469Z,68.00
2022-12-18T03:19:02.684Z,68.10
2022-12-18T03:21:44.649Z,68.20
2022-12-18T03:24:13.577Z,68.30
2022-12-18T03:26:50.663Z,68.30
2022-12-18T03:29:34.289Z,68.50
2022-12-18T03:32:13.283Z,68.50
2022-12-18T03:34:45.531Z,68.50
2022-12-18T03:37:12.736Z,68.20
2022-12-18T03:39:39.889Z,68.20
2022-12-18T03:42:22.662Z,68.10
2022-12-18T03:44:58.823Z,68.10
2022-12-18T03:48:01.271Z,68.00
2022-12-18T03:51:06.092Z,68.00
2022-12-18T03:53:52.797Z,68.10
2022-12-18T03:56:23.378Z,68.00
2022-12-18T03:58:53.845Z,68.00
2022-12-18T04:01:30.712Z,67.90
2022-12-18T04:04:01.176Z,67.90
2022-12-18T04:06:30.363Z,67.90
2022-12-18T04:08:59.467Z,67.90
2022-12-18T04:11:26.909Z,67.90
2022-12-18T04:13:58.221Z,67.90
2022-12-18T04:16:29.449Z,67.80
2022-12-18T04:18:56.342Z,67.90
2022-12-18T04:21:23.778Z,67.90
2022-12-18T04:23:51.040Z,67.90
2022-12-18T04:26:17.970Z,67.90
2022-12-18T04:28:44.776Z,68.00
2022-12-18T04:31:11.622Z,68.00
2022-12-18T04:33:38.822Z,68.00
2022-12-18T04:36:06.245Z,68.10
2022-12-18T04:38:33.489Z,68.00
2022-12-18T04:41:00.365Z,68.00
2022-12-18T04:43:27.320Z,67.90
2022-12-18T04:45:54.155Z,67.90
2022-12-18T04:48:22.008Z,67.90
2022-12-18T04:50:49.085Z,67.80
2022-12-18T04:53:15.905Z,67.80
2022-12-18T04:55:42.687Z,67.80
2022-12-18T04:58:09.503Z,67.90
2022-12-18T05:00:36.601Z,67.90
2022-12-18T05:03:04.161Z,67.90
2022-12-18T05:05:31.036Z,67.90
2022-12-18T05:07:57.912Z,67.90
2022-12-18T05:10:24.741Z,67.80
2022-12-18T05:13:01.373Z,67.80
2022-12-18T05:15:33.327Z,67.70
2022-12-18T05:18:01.271Z,67.60
2022-12-18T05:20:28.875Z,67.50
2022-12-18T05:22:56.885Z,67.60
2022-12-18T05:25:24.749Z,67.60
2022-12-18T05:27:51.579Z,67.60
2022-12-18T05:30:18.554Z,67.50
2022-12-18T05:32:45.384Z,67.40
2022-12-18T05:35:13.953Z,67.30
2022-12-18T05:37:43.302Z,67.40
2022-12-18T05:40:12.291Z,67.40
2022-12-18T05:42:39.229Z,67.50
2022-12-18T05:45:07.360Z,67.60
2022-12-18T05:47:34.156Z,67.60
2022-12-18T05:50:00.996Z,67.60
2022-12-18T05:52:27.795Z,67.60
2022-12-18T05:54:54.590Z,67.70
2022-12-18T05:57:21.472Z,67.80
2022-12-18T05:59:48.364Z,67.90
2022-12-18T06:02:15.291Z,68.00
2022-12-18T06:04:42.170Z,68.00
2022-12-18T06:07:08.953Z,67.90
2022-12-18T06:09:35.890Z,67.90
2022-12-18T06:12:02.720Z,67.90
2022-12-18T06:14:29.596Z,67.90
2022-12-18T06:16:56.458Z,67.90
2022-12-18T06:19:23.276Z,68.00
2022-12-18T06:21:50.524Z,68.00
2022-12-18T06:24:17.437Z,68.00
2022-12-18T06:26:44.314Z,68.10
2022-12-18T06:29:11.220Z,68.10
2022-12-18T06:31:38.390Z,68.00
2022-12-18T06:34:05.981Z,68.00
2022-12-18T06:36:33.462Z,68.00
2022-12-18T06:39:00.388Z,68.00
2022-12-18T06:41:27.887Z,67.90
2022-12-18T06:43:59.543Z,67.80
2022-12-18T06:46:27.108Z,68.10
2022-12-18T06:48:53.952Z,68.10
2022-12-18T06:51:23.717Z,67.70
2022-12-18T06:53:50.879Z,67.60
2022-12-18T06:56:18.213Z,67.50
2022-12-18T06:58:45.197Z,67.40
2022-12-18T07:01:14.112Z,67.30
2022-12-18T07:03:42.712Z,67.30
2022-12-18T07:06:18.725Z,67.30
2022-12-18T07:08:47.090Z,67.20
2022-12-18T07:11:15.516Z,67.20
2022-12-18T07:13:43.139Z,67.10
2022-12-18T07:16:19.683Z,66.90
2022-12-18T07:18:50.973Z,66.70
2022-12-18T07:21:20.913Z,66.80
2022-12-18T07:23:49.049Z,67.00
2022-12-18T07:26:20.210Z,67.30
2022-12-18T07:28:47.625Z,67.30
2022-12-18T07:31:16.852Z,67.30
2022-12-18T07:33:45.953Z,67.20
2022-12-18T07:36:13.612Z,67.30
2022-12-18T07:38:41.036Z,67.30
2022-12-18T07:41:13.212Z,67.20
2022-12-18T07:43:41.941Z,67.00
2022-12-18T07:46:10.805Z,67.00
2022-12-18T07:48:40.316Z,67.10
2022-12-18T07:51:08.030Z,67.10
2022-12-18T07:53:37.243Z,67.20
2022-12-18T07:58:56.983Z,67.30
2022-12-18T08:01:24.325Z,67.30
2022-12-18T08:03:52.181Z,67.10
2022-12-18T08:06:22.392Z,67.30
2022-12-18T08:08:56.497Z,67.30
2022-12-18T08:11:25.821Z,67.30
2022-12-18T08:13:53.487Z,67.30
2022-12-18T08:16:22.068Z,67.80
2022-12-18T08:18:49.918Z,67.30
2022-12-18T08:21:24.110Z,67.30
2022-12-18T08:23:53.258Z,67.40
2022-12-18T08:26:21.083Z,67.80
2022-12-18T08:28:49.741Z,67.20
2022-12-18T08:31:19.044Z,67.40
2022-12-18T08:33:45.997Z,67.40
2022-12-18T08:36:13.782Z,67.20
2022-12-18T08:38:41.009Z,67.10
2022-12-18T08:41:14.838Z,67.10
2022-12-18T08:44:00.752Z,67.10
2022-12-18T08:46:35.277Z,67.20
2022-12-18T08:49:02.583Z,67.30
2022-12-18T08:51:30.182Z,67.50
2022-12-18T08:53:57.919Z,67.60
2022-12-18T08:56:24.922Z,67.70
2022-12-18T08:58:55.910Z,67.70
2022-12-18T09:01:24.005Z,67.80
2022-12-18T09:03:52.053Z,67.80
2022-12-18T09:06:23.710Z,67.90
2022-12-18T09:08:51.158Z,68.00
2022-12-18T09:11:27.884Z,67.90
2022-12-18T09:13:57.095Z,67.80
2022-12-18T09:16:31.696Z,68.20
2022-12-18T09:19:01.017Z,67.90
2022-12-18T09:21:35.812Z,68.00
2022-12-18T09:24:08.797Z,68.00
2022-12-18T09:26:36.342Z,68.10
2022-12-18T09:29:04.373Z,68.00
2022-12-18T09:31:31.438Z,68.00
2022-12-18T09:33:58.309Z,68.10
2022-12-18T09:36:25.285Z,68.20
2022-12-18T09:38:52.204Z,68.10
2022-12-18T09:41:46.867Z,67.90
2022-12-18T09:44:27.063Z,67.80
2022-12-18T09:47:28.814Z,67.90
2022-12-18T09:50:02.554Z,68.00
2022-12-18T09:52:38.496Z,68.00
2022-12-18T09:55:24.278Z,68.30
2022-12-18T09:58:03.468Z,68.50
2022-12-18T10:00:30.403Z,68.60
2022-12-18T10:03:09.602Z,68.60
2022-12-18T10:05:36.496Z,68.60
2022-12-18T10:08:17.053Z,68.50
2022-12-18T10:10:47.292Z,68.50
2022-12-18T10:13:19.321Z,68.60
2022-12-18T10:16:11.433Z,68.60
2022-12-18T10:19:06.023Z,68.60
2022-12-18T10:21:41.342Z,68.50
2022-12-18T10:24:42.266Z,68.50
2022-12-18T10:27:17.436Z,68.50
2022-12-18T10:29:46.847Z,68.60
2022-12-18T10:32:25.984Z,68.60
2022-12-18T10:35:00.478Z,69.20
2022-12-18T10:37:30.994Z,68.60
2022-12-18T10:40:22.333Z,68.70
2022-12-18T10:43:16.457Z,68.60
2022-12-18T10:46:01.509Z,68.60
2022-12-18T10:48:31.302Z,68.60
2022-12-18T10:51:10.847Z,68.50
2022-12-18T10:53:44.520Z,68.40
2022-12-18T10:56:12.473Z,68.60
2022-12-18T10:58:41.512Z,68.50
2022-12-18T11:01:14.633Z,68.50
2022-12-18T11:04:02.625Z,68.60
2022-12-18T11:06:30.772Z,68.70
2022-12-18T11:09:20.633Z,68.80
2022-12-18T11:11:56.885Z,68.70
2022-12-18T11:14:47.176Z,68.70
2022-12-18T11:17:25.859Z,68.70
2022-12-18T11:20:03.784Z,68.60
2022-12-18T11:22:34.480Z,68.60
2022-12-18T11:28:01.025Z,68.70
2022-12-18T11:30:33.400Z,68.70
2022-12-18T11:33:23.760Z,68.80
2022-12-18T11:35:59.403Z,68.80
2022-12-18T11:38:32.220Z,68.90
2022-12-18T11:41:44.478Z,68.90
2022-12-18T11:44:20.870Z,68.90
2022-12-18T11:46:57.803Z,69.00
2022-12-18T11:49:35.559Z,69.00
2022-12-18T11:52:16.657Z,68.90
2022-12-18T11:54:43.597Z,68.90
2022-12-18T11:57:18.866Z,69.00
2022-12-18T12:00:24.264Z,69.00
2022-12-18T12:03:18.750Z,69.00
2022-12-18T12:06:42.190Z,68.90
2022-12-18T12:09:35.170Z,68.80
2022-12-18T12:12:26.395Z,68.80
2022-12-18T12:14:53.166Z,68.70
2022-12-18T12:17:37.858Z,68.70
2022-12-18T12:20:07.511Z,68.70
2022-12-18T12:23:23.521Z,68.70
2022-12-18T12:26:12.604Z,68.70
2022-12-18T12:29:21.437Z,68.70
2022-12-18T12:32:24.077Z,68.70
2022-12-18T12:35:17.305Z,68.60
2022-12-18T12:38:20.804Z,68.80
2022-12-18T12:41:03.940Z,68.50
2022-12-18T12:43:49.600Z,68.50
2022-12-18T12:46:22.739Z,68.60
2022-12-18T12:49:00.810Z,68.70
2022-12-18T12:51:34.852Z,68.70
2022-12-18T12:54:07.054Z,68.80
2022-12-18T12:57:00.486Z,68.90
2022-12-18T13:00:20.171Z,68.80
2022-12-18T13:03:24.971Z,68.80
2022-12-18T13:06:01.383Z,68.90
2022-12-18T13:08:35.853Z,68.80
2022-12-18T13:14:37.483Z,68.80
2022-12-18T13:17:22.159Z,68.80
2022-12-18T13:20:04.609Z,68.80
2022-12-18T13:22:40.400Z,68.90
2022-12-18T13:25:37.608Z,68.90
2022-12-18T13:28:17.331Z,68.80
2022-12-18T13:30:57.745Z,68.80
2022-12-18T13:33:56.340Z,68.70
2022-12-18T13:36:33.704Z,68.70
2022-12-18T13:39:19.735Z,68.80
2022-12-18T13:42:07.064Z,68.70
2022-12-18T13:44:42.406Z,68.80
2022-12-18T13:47:36.137Z,68.80
2022-12-18T13:50:29.858Z,68.70
2022-12-18T13:53:01.695Z,68.60
2022-12-18T13:55:29.716Z,68.70
2022-12-18T13:58:08.314Z,68.60
2022-12-18T14:00:35.937Z,68.70
2022-12-18T14:03:03.327Z,68.50
2022-12-18T14:05:33.165Z,68.50
2022-12-18T14:08:06.982Z,68.50
2022-12-18T14:10:49.499Z,68.40
2022-12-18T14:13:30.572Z,68.30
2022-12-18T14:16:03.103Z,68.20
2022-12-18T14:19:14.362Z,68.30
2022-12-18T14:21:50.988Z,68.30
2022-12-18T14:24:23.064Z,68.30
2022-12-18T14:26:51.750Z,68.40
2022-12-18T14:29:28.860Z,68.40
2022-12-18T14:32:23.583Z,68.40
2022-12-18T14:34:56.871Z,68.20
2022-12-18T14:37:28.617Z,68.20
2022-12-18T14:40:08.767Z,68.20
2022-12-18T14:42:38.367Z,68.20
2022-12-18T14:45:42.338Z,68.20
2022-12-18T14:48:23.404Z,68.10
2022-12-18T14:51:11.459Z,68.10
2022-12-18T14:53:53.734Z,68.00
2022-12-18T14:56:29.862Z,68.30
2022-12-18T14:59:06.999Z,68.10
2022-12-18T15:02:03.146Z,68.20
2022-12-18T15:04:44.497Z,68.10
2022-12-18T15:07:25.784Z,68.20
2022-12-18T15:10:17.578Z,68.20
2022-12-18T15:12:56.715Z,68.20
2022-12-18T15:15:38.851Z,68.40
2022-12-18T15:18:29.108Z,68.20
2022-12-18T15:21:21.030Z,68.20
2022-12-18T15:23:51.326Z,68.10
2022-12-18T15:26:23.268Z,68.20
2022-12-18T15:29:00.916Z,68.20
2022-12-18T15:31:37.089Z,68.30
2022-12-18T15:34:14.020Z,68.40
2022-12-18T15:36:41.547Z,68.90
2022-12-18T15:39:13.155Z,68.50
2022-12-18T15:41:40.494Z,68.50
2022-12-18T15:44:26.609Z,68.50
2022-12-18T15:46:54.040Z,68.50
2022-12-18T15:49:21.192Z,68.60
2022-12-18T15:51:59.076Z,68.50
2022-12-18T15:54:44.934Z,68.50
2022-12-18T15:57:24.353Z,68.50
2022-12-18T15:59:59.452Z,68.50
2022-12-18T16:02:27.565Z,68.60
2022-12-18T16:04:55.467Z,68.60
2022-12-18T16:07:25.102Z,68.50
2022-12-18T16:09:52.697Z,68.70
2022-12-18T16:12:25.155Z,68.50
2022-12-18T16:14:52.180Z,68.60
2022-12-18T16:17:20.042Z,68.50
2022-12-18T16:19:47.180Z,68.50
2022-12-18T16:22:23.385Z,68.50
2022-12-18T16:24:53.224Z,68.60
2022-12-18T16:27:21.363Z,68.60
2022-12-18T16:29:48.508Z,69.10
2022-12-18T16:32:20.336Z,68.60
2022-12-18T16:34:48.506Z,68.60
2022-12-18T16:37:16.795Z,68.60
2022-12-18T16:39:44.226Z,68.60
2022-12-18T16:42:20.713Z,68.80
2022-12-18T16:44:50.328Z,68.70
2022-12-18T16:47:18.491Z,68.60
2022-12-18T16:49:47.114Z,68.60
2022-12-18T16:52:15.939Z,68.60
2022-12-18T16:54:44.876Z,68.80
2022-12-18T16:57:19.019Z,68.60
2022-12-18T16:59:47.300Z,68.70
2022-12-18T17:02:23.440Z,68.80
2022-12-18T17:04:54.232Z,68.60
2022-12-18T17:07:21.724Z,68.80
2022-12-18T17:09:50.677Z,68.70
2022-12-18T17:12:19.146Z,68.70
2022-12-18T17:14:46.255Z,68.70
2022-12-18T17:17:23.081Z,68.60
2022-12-18T17:19:52.624Z,68.70
2022-12-18T17:22:23.155Z,68.70
2022-12-18T17:24:52.826Z,68.70
2022-12-18T17:27:19.860Z,68.80
2022-12-18T17:29:48.778Z,68.90
2022-12-18T17:32:17.949Z,69.00
2022-12-18T17:34:46.011Z,69.00
2022-12-18T17:37:13.294Z,69.10
2022-12-18T17:39:40.305Z,69.10
2022-12-18T17:42:07.828Z,69.20
2022-12-18T17:44:37.921Z,69.20
2022-12-18T17:47:06.348Z,69.30
2022-12-18T17:49:33.654Z,69.40
2022-12-18T17:52:00.496Z,69.30
2022-12-18T17:54:27.265Z,69.70
2022-12-18T17:56:54.085Z,69.10
2022-12-18T17:59:20.929Z,69.00
2022-12-18T18:01:47.965Z,69.40
2022-12-18T18:04:15.493Z,68.80
2022-12-18T18:06:42.444Z,68.80
2022-12-18T18:09:16.295Z,68.80
2022-12-18T18:12:03.886Z,68.70
2022-12-18T18:14:31.583Z,68.80
2022-12-18T18:17:03.638Z,68.80
2022-12-18T18:19:33.700Z,68.80
2022-12-18T18:22:30.913Z,68.80
2022-12-18T18:24:48.810Z,68.80
2022-12-18T18:27:16.891Z,68.80
2022-12-18T18:29:44.858Z,68.80
2022-12-18T18:32:12.323Z,69.10
2022-12-18T18:34:40.700Z,69.00
2022-12-18T18:37:10.048Z,69.00
2022-12-18T18:39:37.228Z,68.80
2022-12-18T18:42:05.406Z,68.80
2022-12-18T18:44:32.752Z,68.80
2022-12-18T18:47:00.857Z,68.80
2022-12-18T18:49:28.775Z,68.70
2022-12-18T18:51:57.734Z,68.70
2022-12-18T18:54:27.476Z,69.20
2022-12-18T18:57:19.553Z,68.90
2022-12-18T18:59:42.896Z,68.90
2022-12-18T19:02:14.029Z,69.00
2022-12-18T19:04:46.627Z,69.10
2022-12-18T19:07:29.412Z,69.20
2022-12-18T19:09:58.157Z,69.20
2022-12-18T19:12:50.001Z,69.50
2022-12-18T19:15:17.192Z,69.30
2022-12-18T19:17:46.063Z,69.30
2022-12-18T19:20:15.458Z,69.50
2022-12-18T19:22:43.291Z,69.40
2022-12-18T19:25:13.789Z,69.40
2022-12-18T19:31:34.868Z,69.60
2022-12-18T19:34:04.122Z,69.50
2022-12-18T19:36:32.282Z,69.60
2022-12-18T19:39:01.755Z,69.60
2022-12-18T19:41:32.850Z,69.60
2022-12-18T19:43:59.885Z,69.60
2022-12-18T19:46:27.998Z,69.60
2022-12-18T19:48:54.777Z,69.60
2022-12-18T19:51:26.697Z,69.70
2022-12-18T19:53:58.858Z,69.70
2022-12-18T19:56:31.420Z,69.60
2022-12-18T19:58:59.397Z,69.60
2022-12-18T20:01:29.310Z,69.60
2022-12-18T20:03:57.514Z,69.60
2022-12-18T20:06:32.933Z,69.70
2022-12-18T20:09:06.287Z,69.70
2022-12-18T20:11:41.963Z,69.80
2022-12-18T20:14:12.889Z,69.80
2022-12-18T20:16:42.132Z,69.70
2022-12-18T20:19:13.352Z,69.80
2022-12-18T20:21:41.610Z,69.80
2022-12-18T20:24:09.247Z,69.90
2022-12-18T20:26:36.570Z,69.60
2022-12-18T20:29:03.742Z,69.60
2022-12-18T20:31:31.245Z,69.50
2022-12-18T20:34:01.778Z,70.10
2022-12-18T20:36:32.921Z,69.70
2022-12-18T20:39:02.772Z,69.40
2022-12-18T20:41:37.280Z,69.30
2022-12-18T20:44:22.759Z,69.30
2022-12-18T20:46:58.444Z,69.30
2022-12-18T20:49:26.831Z,69.50
2022-12-18T20:51:56.930Z,69.50
2022-12-18T20:54:26.877Z,69.50
2022-12-18T20:56:54.427Z,69.50
2022-12-18T20:59:23.216Z,69.60
2022-12-18T21:01:50.342Z,69.70
2022-12-18T21:04:20.537Z,69.70
2022-12-18T21:06:55.849Z,69.80
2022-12-18T21:09:27.505Z,69.90
2022-12-18T21:12:16.016Z,70.10
2022-12-18T21:14:45.931Z,70.20
2022-12-18T21:17:14.695Z,70.20
2022-12-18T21:19:42.041Z,70.20
2022-12-18T21:22:11.559Z,70.30
2022-12-18T21:24:39.163Z,70.40
2022-12-18T21:27:06.241Z,70.30
2022-12-18T21:29:34.873Z,70.40
2022-12-18T21:32:04.607Z,70.40
2022-12-18T21:34:33.513Z,70.40
2022-12-18T21:37:02.347Z,70.50
2022-12-18T21:39:31.174Z,70.60
2022-12-18T21:42:17.898Z,70.70
2022-12-18T21:44:48.554Z,70.50
2022-12-18T21:47:22.070Z,70.50
2022-12-18T21:49:53.885Z,70.40
2022-12-18T21:52:31.680Z,70.60
2022-12-18T21:55:08.534Z,70.50
2022-12-18T21:57:38.530Z,70.50
2022-12-18T22:00:19.363Z,70.50
2022-12-18T22:02:48.856Z,70.50
2022-12-18T22:05:36.027Z,70.50
2022-12-18T22:08:03.371Z,70.60
2022-12-18T22:10:30.853Z,70.80
2022-12-18T22:12:58.626Z,70.70
2022-12-18T22:15:26.318Z,70.50
2022-12-18T22:18:00.134Z,70.50
2022-12-18T22:20:29.955Z,70.60
2022-12-18T22:22:57.784Z,70.60
2022-12-18T22:25:25.685Z,70.60
2022-12-18T22:28:11.524Z,70.70
2022-12-18T22:30:39.190Z,70.70
2022-12-18T22:33:06.662Z,70.70
2022-12-18T22:35:33.949Z,70.60
2022-12-18T22:38:02.304Z,70.80
2022-12-18T22:40:30.453Z,70.40
2022-12-18T22:42:57.703Z,70.60
2022-12-18T22:45:28.577Z,70.60
2022-12-18T22:47:56.422Z,70.60
2022-12-18T22:50:23.401Z,70.50
2022-12-18T22:52:50.528Z,70.70
2022-12-18T22:55:17.602Z,70.40
2022-12-18T22:57:48.534Z,70.50
2022-12-18T23:00:17.026Z,70.50
2022-12-18T23:02:48.391Z,70.60
2022-12-18T23:05:16.267Z,70.60
2022-12-18T23:07:43.595Z,70.60
2022-12-18T23:10:11.238Z,70.70
2022-12-18T23:12:38.622Z,70.70
2022-12-18T23:15:07.116Z,70.80
2022-12-18T23:17:34.605Z,70.80
2022-12-18T23:20:02.126Z,70.80
2022-12-18T23:22:30.858Z,71.00
2022-12-18T23:24:57.977Z,70.70
2022-12-18T23:27:25.581Z,70.70
2022-12-18T23:29:53.364Z,70.80
2022-12-18T23:32:22.583Z,70.70
2022-12-18T23:34:49.828Z,70.80
2022-12-18T23:37:35.266Z,71.00
2022-12-18T23:40:05.655Z,71.00
2022-12-18T23:42:32.847Z,70.90
2022-12-18T23:45:00.044Z,71.00
2022-12-18T23:47:31.421Z,70.90
2022-12-18T23:49:58.935Z,71.00
2022-12-18T23:52:26.548Z,71.30
2022-12-18T23:54:53.803Z,70.90
2022-12-18T23:57:21.295Z,71.00
2022-12-18T23:59:53.200Z,70.80
